createdAt,value
2019-05-01T00:00:16.031Z,8.88
2019-05-01T00:03:32.565Z,8.84
2019-05-01T00:06:39.798Z,8.80
2019-05-01T00:09:44.248Z,8.76
2019-05-01T00:12:48.717Z,8.72
2019-05-01T00:15:53.197Z,8.71
2019-05-01T00:18:57.419Z,8.66
2019-05-01T00:22:01.351Z,8.61
2019-05-01T00:25:05.971Z,8.56
2019-05-01T00:28:10.409Z,8.55
2019-05-01T00:31:14.484Z,8.51
2019-05-01T00:34:18.404Z,8.50
2019-05-01T00:37:22.621Z,8.49
2019-05-01T00:40:26.877Z,8.47
2019-05-01T00:43:30.997Z,8.46
2019-05-01T00:46:35.918Z,8.43
2019-05-01T00:49:40.102Z,8.38
2019-05-01T00:52:44.679Z,8.34
2019-05-01T00:55:59.216Z,8.26
2019-05-01T00:59:17.688Z,8.14
2019-05-01T01:02:42.886Z,8.04
2019-05-01T01:05:47.028Z,8.01
2019-05-01T01:08:50.947Z,7.99
2019-05-01T01:11:55.122Z,8.00
2019-05-01T01:14:59.276Z,7.94
2019-05-01T01:18:03.341Z,7.90
2019-05-01T01:21:07.820Z,7.88
2019-05-01T01:24:11.835Z,7.87
2019-05-01T01:27:16.767Z,7.85
2019-05-01T01:30:21.098Z,7.78
2019-05-01T01:33:25.522Z,7.69
2019-05-01T01:36:29.365Z,7.60
2019-05-01T01:39:33.759Z,7.58
2019-05-01T01:42:38.913Z,7.55
2019-05-01T01:45:47.008Z,7.56
2019-05-01T01:48:51.369Z,7.53
2019-05-01T01:51:56.054Z,7.52
2019-05-01T01:55:00.327Z,7.50
2019-05-01T01:58:05.275Z,7.47
2019-05-01T02:01:37.261Z,7.47
2019-05-01T02:04:51.814Z,7.42
2019-05-01T02:07:56.389Z,7.33
2019-05-01T02:11:00.379Z,7.25
2019-05-01T02:14:04.492Z,7.22
2019-05-01T02:17:08.655Z,7.16
2019-05-01T02:20:12.963Z,7.14
2019-05-01T02:23:16.885Z,7.12
2019-05-01T02:26:22.513Z,7.12
2019-05-01T02:29:33.080Z,7.09
2019-05-01T02:32:38.209Z,7.09
2019-05-01T02:35:43.819Z,7.04
2019-05-01T02:38:49.827Z,7.03
2019-05-01T02:41:55.116Z,6.98
2019-05-01T02:45:01.471Z,6.85
2019-05-01T02:48:05.970Z,6.81
2019-05-01T02:51:10.575Z,6.75
2019-05-01T02:54:17.927Z,6.71
2019-05-01T02:57:24.332Z,6.73
2019-05-01T03:00:28.742Z,6.75
2019-05-01T03:03:32.842Z,6.73
2019-05-01T03:06:38.676Z,6.68
2019-05-01T03:09:43.417Z,6.66
2019-05-01T03:12:50.926Z,6.61
2019-05-01T03:15:55.471Z,6.58
2019-05-01T03:19:02.032Z,6.50
2019-05-01T03:22:13.412Z,6.44
2019-05-01T03:25:18.472Z,6.40
2019-05-01T03:28:22.760Z,6.38
2019-05-01T03:31:26.869Z,6.37
2019-05-01T03:34:30.899Z,6.38
2019-05-01T03:37:35.857Z,6.34
2019-05-01T03:40:40.909Z,6.26
2019-05-01T03:43:45.066Z,6.28
2019-05-01T03:46:49.726Z,6.26
2019-05-01T03:49:54.018Z,6.24
2019-05-01T03:52:58.603Z,6.22
2019-05-01T03:56:03.298Z,6.25
2019-05-01T03:59:08.034Z,6.21
2019-05-01T04:02:34.063Z,6.21
2019-05-01T04:05:37.152Z,6.21
2019-05-01T04:08:41.956Z,6.19
2019-05-01T04:11:46.359Z,6.17
2019-05-01T04:14:50.809Z,6.13
2019-05-01T04:17:56.646Z,6.11
2019-05-01T04:21:01.369Z,6.11
2019-05-01T04:24:05.597Z,6.12
2019-05-01T04:27:11.926Z,6.18
2019-05-01T04:30:35.310Z,6.18
2019-05-01T04:33:40.929Z,6.19
2019-05-01T04:36:49.550Z,6.20
2019-05-01T04:39:53.545Z,6.24
2019-05-01T04:42:58.664Z,6.27
2019-05-01T04:46:02.739Z,6.28
2019-05-01T04:49:06.748Z,6.32
2019-05-01T04:52:11.023Z,6.38
2019-05-01T04:55:16.655Z,6.43
2019-05-01T04:58:21.280Z,6.46
2019-05-01T05:01:29.301Z,6.50
2019-05-01T05:04:34.781Z,6.50
2019-05-01T05:07:39.734Z,6.59
2019-05-01T05:10:44.131Z,6.71
2019-05-01T05:14:07.062Z,6.87
2019-05-01T05:17:15.993Z,7.02
2019-05-01T05:20:20.827Z,7.17
2019-05-01T05:23:25.103Z,7.31
2019-05-01T05:26:29.475Z,7.43
2019-05-01T05:29:34.027Z,7.53
2019-05-01T05:32:40.159Z,7.68
2019-05-01T05:35:46.329Z,7.80
2019-05-01T05:39:02.012Z,7.92
2019-05-01T05:42:06.244Z,8.00
2019-05-01T05:45:10.327Z,8.20
2019-05-01T05:48:14.581Z,8.47
2019-05-01T05:51:32.812Z,9.74
2019-05-01T05:54:58.960Z,10.82
2019-05-01T05:58:21.706Z,11.77
2019-05-01T06:01:54.096Z,12.42
2019-05-01T06:05:27.280Z,12.90
2019-05-01T06:08:34.385Z,13.38
2019-05-01T06:11:53.964Z,13.83
2019-05-01T06:15:28.700Z,14.17
2019-05-01T06:18:44.678Z,14.52
2019-05-01T06:22:11.662Z,14.77
2019-05-01T06:25:22.675Z,15.10
2019-05-01T06:28:29.710Z,15.20
2019-05-01T06:31:34.349Z,15.30
2019-05-01T06:34:38.771Z,15.58
2019-05-01T06:38:05.142Z,15.72
2019-05-01T06:41:09.162Z,15.73
2019-05-01T06:44:39.188Z,15.71
2019-05-01T06:47:49.024Z,16.08
2019-05-01T06:51:02.226Z,16.64
2019-05-01T06:54:11.369Z,16.78
2019-05-01T06:57:14.882Z,16.85
2019-05-01T07:00:19.510Z,16.88
2019-05-01T07:03:23.878Z,16.98
2019-05-01T07:06:30.946Z,17.08
2019-05-01T07:09:38.007Z,17.37
2019-05-01T07:12:42.799Z,17.32
2019-05-01T07:15:47.467Z,17.52
2019-05-01T07:18:53.513Z,17.73
2019-05-01T07:22:01.802Z,17.72
2019-05-01T07:25:05.296Z,17.86
2019-05-01T07:28:09.742Z,17.97
2019-05-01T07:31:15.640Z,18.11
2019-05-01T07:34:21.762Z,18.17
2019-05-01T07:37:27.742Z,18.08
2019-05-01T07:40:31.925Z,18.21
2019-05-01T07:44:13.507Z,18.44
2019-05-01T07:47:33.407Z,18.43
2019-05-01T07:50:38.032Z,18.38
2019-05-01T07:53:42.834Z,18.21
2019-05-01T07:56:46.861Z,18.41
2019-05-01T07:59:51.677Z,18.48
2019-05-01T08:02:56.024Z,18.47
2019-05-01T08:06:00.379Z,18.60
2019-05-01T08:09:06.615Z,18.52
2019-05-01T08:12:14.330Z,18.62
2019-05-01T08:15:17.597Z,18.70
2019-05-01T08:18:28.037Z,18.12
2019-05-01T08:21:56.973Z,17.06
2019-05-01T08:25:00.485Z,16.37
2019-05-01T08:28:20.135Z,16.14
2019-05-01T08:31:40.193Z,16.09
2019-05-01T08:34:49.040Z,16.08
2019-05-01T08:37:53.778Z,16.08
2019-05-01T08:40:56.913Z,16.18
2019-05-01T08:44:01.529Z,16.26
2019-05-01T08:47:15.659Z,16.34
2019-05-01T08:50:24.729Z,16.41
2019-05-01T08:53:26.698Z,16.54
2019-05-01T08:56:30.905Z,16.64
2019-05-01T08:59:34.840Z,16.67
2019-05-01T09:02:41.487Z,16.75
2019-05-01T09:05:45.200Z,16.86
2019-05-01T09:08:49.438Z,16.95
2019-05-01T09:11:54.728Z,16.98
2019-05-01T09:14:59.317Z,17.08
2019-05-01T09:18:03.243Z,17.19
2019-05-01T09:21:07.181Z,17.33
2019-05-01T09:24:11.518Z,17.47
2019-05-01T09:27:29.267Z,17.61
2019-05-01T09:30:36.734Z,17.74
2019-05-01T09:33:40.894Z,17.90
2019-05-01T09:36:44.901Z,17.91
2019-05-01T09:39:49.418Z,17.98
2019-05-01T09:42:54.743Z,18.04
2019-05-01T09:45:59.518Z,18.21
2019-05-01T09:49:03.783Z,18.34
2019-05-01T09:52:30.677Z,18.50
2019-05-01T09:55:48.502Z,18.67
2019-05-01T09:58:52.657Z,18.91
2019-05-01T10:01:56.678Z,18.93
2019-05-01T10:05:02.113Z,19.02
2019-05-01T10:08:06.945Z,19.16
2019-05-01T10:11:11.486Z,19.22
2019-05-01T10:14:15.703Z,19.22
2019-05-01T10:17:20.226Z,19.51
2019-05-01T10:20:24.253Z,19.86
2019-05-01T10:23:28.562Z,20.16
2019-05-01T10:26:34.413Z,20.20
2019-05-01T10:30:05.371Z,20.19
2019-05-01T10:33:14.819Z,19.96
2019-05-01T10:36:38.316Z,20.02
2019-05-01T10:39:42.176Z,19.77
2019-05-01T10:42:46.643Z,19.52
2019-05-01T10:45:50.844Z,19.52
2019-05-01T10:48:57.347Z,19.54
2019-05-01T10:52:13.662Z,19.60
2019-05-01T10:55:07.970Z,19.60
2019-05-01T10:58:12.683Z,20.09
2019-05-01T11:01:23.929Z,20.39
2019-05-01T11:04:28.449Z,20.39
2019-05-01T11:07:33.002Z,20.74
2019-05-01T11:10:36.841Z,20.60
2019-05-01T11:13:41.014Z,20.64
2019-05-01T11:16:44.855Z,20.44
2019-05-01T11:19:48.840Z,20.42
2019-05-01T11:22:52.866Z,20.70
2019-05-01T11:25:57.067Z,21.09
2019-05-01T11:29:01.483Z,21.23
2019-05-01T11:32:16.800Z,21.67
2019-05-01T11:35:43.324Z,22.11
2019-05-01T11:38:55.677Z,22.06
2019-05-01T11:42:04.240Z,22.33
2019-05-01T11:45:09.405Z,22.76
2019-05-01T11:48:13.636Z,23.02
2019-05-01T11:51:17.555Z,23.23
2019-05-01T11:54:21.484Z,23.39
2019-05-01T11:57:25.406Z,23.46
2019-05-01T12:00:29.411Z,23.18
2019-05-01T12:03:33.304Z,23.13
2019-05-01T12:06:37.819Z,23.26
2019-05-01T12:09:42.164Z,23.51
2019-05-01T12:12:46.461Z,23.69
2019-05-01T12:15:57.963Z,23.77
2019-05-01T12:19:02.064Z,23.69
2019-05-01T12:22:06.059Z,23.49
2019-05-01T12:25:10.309Z,23.55
2019-05-01T12:28:14.246Z,23.77
2019-05-01T12:31:18.480Z,23.93
2019-05-01T12:34:23.065Z,23.96
2019-05-01T12:37:32.793Z,23.78
2019-05-01T12:40:36.792Z,23.78
2019-05-01T12:43:40.735Z,23.81
2019-05-01T12:46:50.382Z,23.48
2019-05-01T12:49:54.717Z,23.18
2019-05-01T12:53:22.260Z,22.87
2019-05-01T12:56:35.133Z,22.69
2019-05-01T12:59:39.367Z,23.19
2019-05-01T13:02:43.576Z,23.51
2019-05-01T13:05:48.080Z,23.49
2019-05-01T13:08:52.169Z,23.61
2019-05-01T13:11:56.516Z,23.62
2019-05-01T13:15:00.364Z,23.85
2019-05-01T13:18:04.414Z,24.00
2019-05-01T13:21:08.558Z,23.99
2019-05-01T13:24:12.887Z,23.75
2019-05-01T13:27:21.879Z,24.05
2019-05-01T13:30:57.031Z,24.26
2019-05-01T13:34:00.970Z,24.54
2019-05-01T13:37:05.194Z,24.46
2019-05-01T13:40:10.185Z,24.05
2019-05-01T13:43:14.288Z,23.77
2019-05-01T13:46:18.568Z,23.81
2019-05-01T13:49:22.488Z,23.92
2019-05-01T13:52:27.222Z,23.69
2019-05-01T13:55:31.135Z,23.95
2019-05-01T13:58:35.245Z,24.17
2019-05-01T14:01:39.290Z,24.28
2019-05-01T14:04:43.893Z,24.59
2019-05-01T14:07:48.129Z,24.73
2019-05-01T14:10:52.316Z,24.84
2019-05-01T14:13:56.506Z,24.99
2019-05-01T14:17:00.964Z,25.04
2019-05-01T14:20:21.766Z,25.12
2019-05-01T14:24:00.190Z,25.18
2019-05-01T14:27:04.374Z,25.24
2019-05-01T14:30:11.606Z,25.18
2019-05-01T14:33:16.384Z,24.94
2019-05-01T14:36:20.376Z,24.92
2019-05-01T14:39:25.151Z,24.66
2019-05-01T14:42:29.158Z,24.25
2019-05-01T14:45:33.436Z,23.92
2019-05-01T14:48:37.363Z,23.65
2019-05-01T14:51:41.676Z,23.46
2019-05-01T14:54:46.017Z,23.29
2019-05-01T14:57:49.872Z,23.25
2019-05-01T15:00:54.231Z,23.23
2019-05-01T15:03:58.353Z,23.20
2019-05-01T15:07:02.785Z,23.24
2019-05-01T15:10:07.095Z,23.27
2019-05-01T15:13:26.882Z,23.16
2019-05-01T15:16:52.916Z,23.13
2019-05-01T15:20:01.793Z,23.12
2019-05-01T15:23:05.841Z,23.12
2019-05-01T15:26:10.199Z,23.02
2019-05-01T15:29:14.217Z,22.90
2019-05-01T15:32:18.125Z,23.06
2019-05-01T15:35:22.121Z,23.29
2019-05-01T15:38:26.347Z,23.49
2019-05-01T15:41:52.683Z,23.27
2019-05-01T15:44:57.252Z,23.11
2019-05-01T15:48:01.413Z,22.99
2019-05-01T15:51:05.814Z,22.87
2019-05-01T15:54:12.332Z,22.67
2019-05-01T15:57:16.870Z,22.46
2019-05-01T16:00:21.352Z,22.30
2019-05-01T16:03:25.607Z,22.18
2019-05-01T16:06:29.447Z,21.96
2019-05-01T16:09:33.498Z,21.76
2019-05-01T16:12:49.129Z,21.55
2019-05-01T16:15:53.648Z,21.36
2019-05-01T16:18:57.969Z,21.19
2019-05-01T16:22:01.928Z,21.05
2019-05-01T16:25:06.622Z,20.92
2019-05-01T16:28:10.551Z,20.84
2019-05-01T16:31:14.475Z,20.74
2019-05-01T16:34:18.665Z,20.64
2019-05-01T16:37:22.713Z,20.56
2019-05-01T16:40:36.858Z,20.51
2019-05-01T16:43:40.955Z,20.47
2019-05-01T16:46:45.158Z,20.43
2019-05-01T16:49:49.655Z,20.39
2019-05-01T16:52:53.922Z,20.34
2019-05-01T16:55:58.305Z,20.28
2019-05-01T16:59:02.215Z,20.23
2019-05-01T17:02:24.336Z,20.15
2019-05-01T17:05:52.657Z,20.03
2019-05-01T17:08:59.734Z,19.84
2019-05-01T17:12:03.784Z,19.62
2019-05-01T17:15:08.233Z,19.57
2019-05-01T17:18:12.840Z,19.47
2019-05-01T17:21:16.763Z,19.34
2019-05-01T17:24:21.118Z,19.20
2019-05-01T17:27:24.996Z,19.08
2019-05-01T17:30:41.597Z,18.90
2019-05-01T17:33:45.835Z,18.74
2019-05-01T17:36:49.847Z,18.59
2019-05-01T17:39:53.831Z,18.51
2019-05-01T17:42:57.870Z,18.45
2019-05-01T17:46:05.884Z,18.34
2019-05-01T17:49:09.274Z,18.20
2019-05-01T17:52:14.024Z,18.11
2019-05-01T17:55:18.264Z,18.06
2019-05-01T17:58:22.356Z,17.95
2019-05-01T18:01:44.474Z,17.86
2019-05-01T18:04:53.542Z,17.73
2019-05-01T18:07:57.455Z,17.62
2019-05-01T18:11:02.064Z,17.62
2019-05-01T18:14:06.202Z,17.44
2019-05-01T18:17:10.496Z,17.44
2019-05-01T18:20:14.684Z,17.28
2019-05-01T18:23:37.225Z,17.09
2019-05-01T18:27:06.360Z,16.98
2019-05-01T18:30:15.838Z,16.86
2019-05-01T18:33:22.042Z,16.68
2019-05-01T18:36:32.014Z,16.57
2019-05-01T18:39:38.094Z,16.48
2019-05-01T18:42:42.738Z,16.39
2019-05-01T18:45:55.004Z,16.32
2019-05-01T18:48:59.304Z,16.22
2019-05-01T18:52:03.900Z,16.16
2019-05-01T18:55:08.196Z,16.05
2019-05-01T18:58:12.750Z,15.91
2019-05-01T19:01:17.175Z,15.78
2019-05-01T19:04:23.552Z,15.71
2019-05-01T19:07:27.644Z,15.64
2019-05-01T19:10:31.638Z,15.52
2019-05-01T19:13:35.643Z,15.40
2019-05-01T19:16:44.631Z,15.26
2019-05-01T19:19:45.555Z,15.13
2019-05-01T19:22:49.514Z,15.08
2019-05-01T19:25:56.329Z,15.04
2019-05-01T19:28:59.800Z,15.02
2019-05-01T19:32:04.349Z,14.97
2019-05-01T19:35:09.161Z,14.92
2019-05-01T19:38:13.441Z,14.83
2019-05-01T19:41:17.406Z,14.78
2019-05-01T19:44:21.756Z,14.71
2019-05-01T19:47:26.058Z,14.64
2019-05-01T19:50:30.434Z,14.58
2019-05-01T19:53:35.063Z,14.55
2019-05-01T19:56:39.440Z,14.50
2019-05-01T19:59:44.073Z,14.42
2019-05-01T20:02:48.338Z,14.33
2019-05-01T20:05:52.811Z,14.22
2019-05-01T20:08:57.212Z,14.18
2019-05-01T20:12:01.409Z,14.13
2019-05-01T20:15:06.245Z,14.08
2019-05-01T20:18:10.668Z,13.98
2019-05-01T20:21:15.200Z,13.92
2019-05-01T20:24:19.620Z,13.87
2019-05-01T20:27:23.729Z,13.81
2019-05-01T20:30:28.111Z,13.73
2019-05-01T20:33:33.293Z,13.68
2019-05-01T20:36:38.156Z,13.58
2019-05-01T20:39:42.361Z,13.49
2019-05-01T20:42:46.275Z,13.44
2019-05-01T20:45:51.315Z,13.35
2019-05-01T20:48:55.973Z,13.27
2019-05-01T20:52:01.173Z,13.19
2019-05-01T20:55:05.404Z,13.16
2019-05-01T20:58:16.258Z,13.10
2019-05-01T21:01:24.226Z,13.06
2019-05-01T21:04:46.473Z,13.03
2019-05-01T21:07:58.320Z,12.92
2019-05-01T21:11:11.249Z,12.83
2019-05-01T21:14:20.035Z,12.77
2019-05-01T21:17:18.423Z,12.71
2019-05-01T21:20:23.552Z,12.63
2019-05-01T21:23:27.562Z,12.57
2019-05-01T21:26:33.556Z,12.52
2019-05-01T21:29:38.668Z,12.47
2019-05-01T21:32:44.342Z,12.42
2019-05-01T21:35:49.125Z,12.39
2019-05-01T21:38:53.051Z,12.37
2019-05-01T21:41:56.968Z,12.31
2019-05-01T21:45:01.268Z,12.23
2019-05-01T21:48:05.364Z,12.17
2019-05-01T21:51:09.500Z,12.11
2019-05-01T21:54:16.145Z,12.05
2019-05-01T21:57:19.295Z,12.00
2019-05-01T22:00:24.868Z,11.95
2019-05-01T22:03:29.841Z,11.93
2019-05-01T22:06:34.395Z,11.84
2019-05-01T22:09:38.668Z,11.77
2019-05-01T22:12:43.827Z,11.68
2019-05-01T22:15:53.959Z,11.59
2019-05-01T22:19:06.401Z,11.53
2019-05-01T22:22:19.821Z,11.51
2019-05-01T22:25:28.409Z,11.46
2019-05-01T22:28:42.286Z,11.41
2019-05-01T22:32:08.343Z,11.29
2019-05-01T22:35:16.863Z,11.24
2019-05-01T22:38:21.223Z,11.23
2019-05-01T22:41:25.085Z,11.17
2019-05-01T22:44:29.021Z,11.11
2019-05-01T22:47:33.360Z,11.01
2019-05-01T22:50:37.723Z,10.95
2019-05-01T22:53:42.005Z,10.92
2019-05-01T22:56:45.927Z,10.88
2019-05-01T22:59:49.888Z,10.85
2019-05-01T23:02:54.769Z,10.81
2019-05-01T23:06:01.976Z,10.76
2019-05-01T23:09:09.032Z,10.67
2019-05-01T23:12:13.267Z,10.59
2019-05-01T23:15:22.080Z,10.55
2019-05-01T23:18:26.334Z,10.54
2019-05-01T23:21:30.846Z,10.52
2019-05-01T23:24:35.164Z,10.48
2019-05-01T23:34:56.765Z,10.29
2019-05-01T23:38:01.030Z,10.25
2019-05-01T23:41:05.371Z,10.21
2019-05-01T23:44:09.315Z,10.16
2019-05-01T23:47:13.261Z,10.11
2019-05-01T23:50:17.862Z,10.10
2019-05-01T23:53:22.634Z,10.09
2019-05-01T23:56:31.120Z,10.02
2019-05-01T23:59:33.138Z,9.91
